createdAt,value
2022-12-03T00:00:34.053Z,8.45
2022-12-03T00:03:00.948Z,9.77
2022-12-03T00:05:27.549Z,7.53
2022-12-03T00:07:54.150Z,9.00
2022-12-03T00:10:20.600Z,9.60
2022-12-03T00:12:47.234Z,10.30
2022-12-03T00:15:13.702Z,9.50
2022-12-03T00:17:40.390Z,10.60
2022-12-03T00:20:08.935Z,11.65
2022-12-03T00:22:35.467Z,10.20
2022-12-03T00:25:01.858Z,9.93
2022-12-03T00:27:28.298Z,9.85
2022-12-03T00:29:54.881Z,9.73
2022-12-03T00:32:21.291Z,12.35
2022-12-03T00:34:47.793Z,13.00
2022-12-03T00:37:14.231Z,11.15
2022-12-03T00:39:40.871Z,11.82
2022-12-03T00:42:07.338Z,10.10
2022-12-03T00:44:33.943Z,12.38
2022-12-03T00:47:00.412Z,11.05
2022-12-03T00:49:27.245Z,11.85
2022-12-03T00:51:53.672Z,10.43
2022-12-03T00:54:20.242Z,10.98
2022-12-03T00:56:46.646Z,13.57
2022-12-03T00:59:13.244Z,12.65
2022-12-03T01:01:39.776Z,12.50
2022-12-03T01:04:07.622Z,15.55
2022-12-03T01:06:34.077Z,12.43
2022-12-03T01:09:00.722Z,14.13
2022-12-03T01:11:39.489Z,16.15
2022-12-03T01:14:06.697Z,11.95
2022-12-03T01:16:33.670Z,15.90
2022-12-03T01:19:00.113Z,15.73
2022-12-03T01:21:26.613Z,13.63
2022-12-03T01:23:53.018Z,13.90
2022-12-03T01:26:19.496Z,17.23
2022-12-03T01:28:45.890Z,22.15
2022-12-03T01:31:31.054Z,19.42
2022-12-03T01:33:57.745Z,21.42
2022-12-03T01:36:24.159Z,21.17
2022-12-03T01:38:50.708Z,18.08
2022-12-03T01:41:18.442Z,19.95
2022-12-03T01:43:46.014Z,18.23
2022-12-03T01:46:16.351Z,19.30
2022-12-03T01:48:43.146Z,21.95
2022-12-03T01:51:09.572Z,24.10
2022-12-03T01:53:35.973Z,19.45
2022-12-03T01:56:02.564Z,20.35
2022-12-03T01:58:29.835Z,17.52
2022-12-03T02:01:06.234Z,21.52
2022-12-03T02:03:32.643Z,20.88
2022-12-03T02:05:59.182Z,18.50
2022-12-03T02:08:28.157Z,19.90
2022-12-03T02:10:55.113Z,19.48
2022-12-03T02:13:21.591Z,17.38
2022-12-03T02:15:48.207Z,21.13
2022-12-03T02:18:14.679Z,21.45
2022-12-03T02:21:09.095Z,22.60
2022-12-03T02:23:43.734Z,19.45
2022-12-03T02:26:10.410Z,23.73
2022-12-03T02:28:38.108Z,20.20
2022-12-03T02:31:05.268Z,22.33
2022-12-03T02:33:32.393Z,19.95
2022-12-03T02:36:03.256Z,22.73
2022-12-03T02:38:33.527Z,20.02
2022-12-03T02:41:04.488Z,19.75
2022-12-03T02:43:31.126Z,21.05
2022-12-03T02:46:01.078Z,15.60
2022-12-03T02:48:31.651Z,16.27
2022-12-03T02:51:01.192Z,18.45
2022-12-03T02:53:33.383Z,21.13
2022-12-03T02:56:01.656Z,23.73
2022-12-03T02:58:31.222Z,21.75
2022-12-03T03:00:58.997Z,19.13
2022-12-03T03:03:27.877Z,21.90
2022-12-03T03:05:56.709Z,18.02
2022-12-03T03:08:25.303Z,18.73
2022-12-03T03:10:52.085Z,21.10
2022-12-03T03:13:20.151Z,19.55
2022-12-03T03:15:47.260Z,22.88
2022-12-03T03:18:15.100Z,23.70
2022-12-03T03:20:42.396Z,24.95
2022-12-03T03:23:11.870Z,18.77
2022-12-03T03:25:43.768Z,23.15
2022-12-03T03:28:11.518Z,19.02
2022-12-03T03:30:40.238Z,16.95
2022-12-03T03:33:07.100Z,17.02
2022-12-03T03:35:33.596Z,20.02
2022-12-03T03:38:00.318Z,22.05
2022-12-03T03:40:27.665Z,20.40
2022-12-03T03:42:55.129Z,17.35
2022-12-03T03:45:27.300Z,20.05
2022-12-03T03:47:57.971Z,21.42
2022-12-03T03:50:25.812Z,17.38
2022-12-03T03:52:53.102Z,16.60
2022-12-03T03:55:20.367Z,19.23
2022-12-03T03:57:48.180Z,22.75
2022-12-03T04:00:15.562Z,15.40
2022-12-03T04:02:42.267Z,21.40
2022-12-03T04:05:16.879Z,16.58
2022-12-03T04:07:43.408Z,16.73
2022-12-03T04:10:29.770Z,17.95
2022-12-03T04:12:56.179Z,19.75
2022-12-03T04:15:23.606Z,16.23
2022-12-03T04:18:10.838Z,15.57
2022-12-03T04:20:38.110Z,15.07
2022-12-03T04:23:04.772Z,15.13
2022-12-03T04:25:50.234Z,15.68
2022-12-03T04:31:21.455Z,17.40
2022-12-03T04:34:06.660Z,20.45
2022-12-03T04:36:33.155Z,18.23
2022-12-03T04:38:59.596Z,16.25
2022-12-03T04:41:26.167Z,17.33
2022-12-03T04:44:11.225Z,18.15
2022-12-03T04:46:37.572Z,17.13
2022-12-03T04:49:04.069Z,16.65
2022-12-03T04:51:30.493Z,22.98
2022-12-03T04:53:56.844Z,18.02
2022-12-03T04:56:23.301Z,18.30
2022-12-03T04:58:49.709Z,15.55
2022-12-03T05:01:16.252Z,19.20
2022-12-03T05:03:42.671Z,17.02
2022-12-03T05:06:09.199Z,16.42
2022-12-03T05:08:35.547Z,18.58
2022-12-03T05:11:02.012Z,16.05
2022-12-03T05:13:28.452Z,13.32
2022-12-03T05:15:55.057Z,17.17
2022-12-03T05:18:21.405Z,14.77
2022-12-03T05:20:53.210Z,15.18
2022-12-03T05:23:20.836Z,16.70
2022-12-03T05:25:47.571Z,16.08
2022-12-03T05:28:14.263Z,15.13
2022-12-03T05:30:41.079Z,16.65
2022-12-03T05:33:07.590Z,15.93
2022-12-03T05:35:34.138Z,12.20
2022-12-03T05:38:00.593Z,16.52
2022-12-03T05:40:28.423Z,12.93
2022-12-03T05:42:54.893Z,13.52
2022-12-03T05:45:26.066Z,14.88
2022-12-03T05:47:53.828Z,17.60
2022-12-03T05:50:22.144Z,14.88
2022-12-03T05:52:48.746Z,18.20
2022-12-03T05:55:15.635Z,14.40
2022-12-03T05:57:42.229Z,13.18
2022-12-03T06:00:14.409Z,12.98
2022-12-03T06:02:41.095Z,14.25
2022-12-03T06:05:09.597Z,16.15
2022-12-03T06:07:36.087Z,13.80
2022-12-03T06:10:04.008Z,15.25
2022-12-03T06:12:30.647Z,16.05
2022-12-03T06:14:57.128Z,13.60
2022-12-03T06:17:23.673Z,14.52
2022-12-03T06:19:50.022Z,14.80
2022-12-03T06:22:16.491Z,16.15
2022-12-03T06:24:42.882Z,14.10
2022-12-03T06:27:09.384Z,15.10
2022-12-03T06:29:35.935Z,12.45
2022-12-03T06:32:03.184Z,16.50
2022-12-03T06:34:29.676Z,14.98
2022-12-03T06:36:56.464Z,17.63
2022-12-03T06:39:22.994Z,16.73
2022-12-03T06:41:49.491Z,14.73
2022-12-03T06:44:15.916Z,13.10
2022-12-03T06:46:42.555Z,15.65
2022-12-03T06:49:09.403Z,14.00
2022-12-03T06:51:36.746Z,16.17
2022-12-03T06:54:04.183Z,15.88
2022-12-03T06:56:36.880Z,15.77
2022-12-03T07:01:32.141Z,15.27
2022-12-03T07:03:58.531Z,15.38
2022-12-03T07:06:25.136Z,13.35
2022-12-03T07:08:51.601Z,14.45
2022-12-03T07:11:33.267Z,15.40
2022-12-03T07:14:04.958Z,15.68
2022-12-03T07:16:33.281Z,18.83
2022-12-03T07:18:59.732Z,14.45
2022-12-03T07:21:26.294Z,14.35
2022-12-03T07:23:52.728Z,15.75
2022-12-03T07:26:19.251Z,14.65
2022-12-03T07:28:46.646Z,19.50
2022-12-03T07:31:13.276Z,15.23
2022-12-03T07:33:39.940Z,16.13
2022-12-03T07:36:06.802Z,15.35
2022-12-03T07:38:33.214Z,13.85
2022-12-03T07:40:59.703Z,15.45
2022-12-03T07:43:26.056Z,14.23
2022-12-03T07:45:52.560Z,15.90
2022-12-03T07:48:18.939Z,13.88
2022-12-03T07:50:45.492Z,15.32
2022-12-03T07:53:12.030Z,13.82
2022-12-03T07:55:38.439Z,16.13
2022-12-03T07:58:04.914Z,14.52
2022-12-03T08:00:31.587Z,14.98
2022-12-03T08:02:58.162Z,13.70
2022-12-03T08:05:24.569Z,12.88
2022-12-03T08:07:51.142Z,20.02
2022-12-03T08:10:17.779Z,13.13
2022-12-03T08:12:44.461Z,14.85
2022-12-03T08:15:15.379Z,18.88
2022-12-03T08:17:43.446Z,19.05
2022-12-03T08:20:15.469Z,17.83
2022-12-03T08:22:43.621Z,15.32
2022-12-03T08:25:31.782Z,15.48
2022-12-03T08:28:12.210Z,16.95
2022-12-03T08:30:38.963Z,17.17
2022-12-03T08:33:24.575Z,20.05
2022-12-03T08:35:51.202Z,20.27
2022-12-03T08:38:22.186Z,17.67
2022-12-03T08:40:51.113Z,15.50
2022-12-03T08:43:26.850Z,21.90
2022-12-03T08:45:57.556Z,18.90
2022-12-03T08:48:34.406Z,20.92
2022-12-03T08:51:20.984Z,17.85
2022-12-03T08:53:50.142Z,17.10
2022-12-03T08:56:29.168Z,19.70
2022-12-03T08:59:00.601Z,17.30
2022-12-03T09:01:44.048Z,14.48
2022-12-03T09:04:22.454Z,18.65
2022-12-03T09:06:49.843Z,18.80
2022-12-03T09:09:16.275Z,20.92
2022-12-03T09:11:43.405Z,18.52
2022-12-03T09:14:16.733Z,19.60
2022-12-03T09:19:11.678Z,23.23
2022-12-03T09:21:38.059Z,17.38
2022-12-03T09:24:04.775Z,20.58
2022-12-03T09:26:31.155Z,21.50
2022-12-03T09:28:57.737Z,17.73
2022-12-03T09:31:24.306Z,17.88
2022-12-03T09:33:50.910Z,21.67
2022-12-03T09:36:17.305Z,20.17
2022-12-03T09:38:47.643Z,14.32
2022-12-03T09:41:14.704Z,17.02
2022-12-03T09:44:03.239Z,19.95
2022-12-03T09:46:30.004Z,17.92
2022-12-03T09:48:56.838Z,31.90
2022-12-03T09:51:28.090Z,17.13
2022-12-03T09:53:54.461Z,20.08
2022-12-03T09:56:23.301Z,17.42
2022-12-03T09:58:50.198Z,25.95
2022-12-03T10:01:17.667Z,20.75
2022-12-03T10:03:48.215Z,20.00
2022-12-03T10:06:18.945Z,24.30
2022-12-03T10:08:48.454Z,19.35
2022-12-03T10:11:17.257Z,24.15
2022-12-03T10:13:44.664Z,23.48
2022-12-03T10:16:18.131Z,22.73
2022-12-03T10:18:51.301Z,20.13
2022-12-03T10:21:25.833Z,25.13
2022-12-03T10:24:21.984Z,22.25
2022-12-03T10:26:52.201Z,21.85
2022-12-03T10:29:34.652Z,24.75
2022-12-03T10:32:10.184Z,23.02
2022-12-03T10:34:39.444Z,22.05
2022-12-03T10:37:11.696Z,23.08
2022-12-03T10:40:04.575Z,31.92
2022-12-03T10:42:33.560Z,28.38
2022-12-03T10:45:15.357Z,31.83
2022-12-03T10:47:43.454Z,28.73
2022-12-03T10:50:18.744Z,27.38
2022-12-03T10:52:46.428Z,26.95
2022-12-03T10:55:13.703Z,32.33
2022-12-03T10:57:45.299Z,29.52
2022-12-03T11:00:22.684Z,25.42
2022-12-03T11:02:56.100Z,30.02
2022-12-03T11:05:27.243Z,31.17
2022-12-03T11:07:54.331Z,29.45
2022-12-03T11:10:21.121Z,30.80
2022-12-03T11:13:25.312Z,27.48
2022-12-03T11:15:52.915Z,33.00
2022-12-03T11:18:43.192Z,30.30
2022-12-03T11:21:12.407Z,28.20
2022-12-03T11:23:45.168Z,27.27
2022-12-03T11:26:37.331Z,30.90
2022-12-03T11:29:04.915Z,26.42
2022-12-03T11:31:40.769Z,32.08
2022-12-03T11:34:22.532Z,32.35
2022-12-03T11:37:11.103Z,30.92
2022-12-03T11:39:49.588Z,33.05
2022-12-03T11:42:27.718Z,31.73
2022-12-03T11:45:06.244Z,29.15
2022-12-03T11:47:40.824Z,29.65
2022-12-03T11:50:37.669Z,31.52
2022-12-03T11:53:17.443Z,31.67
2022-12-03T11:55:48.666Z,37.17
2022-12-03T11:58:24.510Z,30.88
2022-12-03T12:00:56.711Z,30.67
2022-12-03T12:03:44.559Z,32.78
2022-12-03T12:06:18.895Z,29.15
2022-12-03T12:08:51.324Z,37.47
2022-12-03T12:11:19.918Z,29.27
2022-12-03T12:14:09.856Z,34.75
2022-12-03T12:16:41.139Z,35.70
2022-12-03T12:19:32.580Z,43.83
2022-12-03T12:22:27.452Z,34.33
2022-12-03T12:24:54.807Z,30.37
2022-12-03T12:27:39.170Z,32.90
2022-12-03T12:30:28.153Z,35.72
2022-12-03T12:33:23.230Z,36.83
2022-12-03T12:35:51.086Z,30.02
2022-12-03T12:38:19.847Z,45.75
2022-12-03T12:40:49.973Z,34.45
2022-12-03T12:43:26.741Z,38.00
2022-12-03T12:45:57.081Z,34.70
2022-12-03T12:48:24.838Z,35.17
2022-12-03T12:51:08.910Z,31.95
2022-12-03T12:53:37.097Z,36.08
2022-12-03T12:56:31.992Z,36.10
2022-12-03T12:59:14.135Z,37.63
2022-12-03T13:01:41.974Z,34.83
2022-12-03T13:04:14.466Z,34.53
2022-12-03T13:06:41.774Z,37.85
2022-12-03T13:09:17.678Z,39.45
2022-12-03T13:11:46.619Z,39.67
2022-12-03T13:14:19.403Z,33.15
2022-12-03T13:16:47.358Z,37.78
2022-12-03T13:19:46.091Z,34.60
2022-12-03T13:22:20.589Z,36.35
2022-12-03T13:24:50.789Z,38.10
2022-12-03T13:27:17.123Z,35.17
2022-12-03T13:29:50.715Z,32.88
2022-12-03T13:32:20.511Z,40.55
2022-12-03T13:34:50.319Z,34.45
2022-12-03T13:37:22.184Z,35.00
2022-12-03T13:39:51.756Z,36.83
2022-12-03T13:42:45.071Z,35.40
2022-12-03T13:45:14.122Z,35.70
2022-12-03T13:47:43.282Z,34.70
2022-12-03T13:50:21.556Z,33.83
2022-12-03T13:52:48.355Z,36.88
2022-12-03T13:55:28.581Z,37.30
2022-12-03T13:57:55.990Z,32.08
2022-12-03T14:00:22.896Z,31.10
2022-12-03T14:02:49.420Z,32.50
2022-12-03T14:05:15.923Z,33.13
2022-12-03T14:07:42.575Z,37.00
2022-12-03T14:10:11.311Z,34.90
2022-12-03T14:12:37.702Z,33.00
2022-12-03T14:15:05.610Z,31.05
2022-12-03T14:17:32.345Z,32.92
2022-12-03T14:20:01.265Z,29.60
2022-12-03T14:22:28.300Z,29.60
2022-12-03T14:24:54.704Z,32.25
2022-12-03T14:27:22.057Z,34.80
2022-12-03T14:29:48.492Z,31.70
2022-12-03T14:32:15.201Z,34.47
2022-12-03T14:34:41.645Z,31.48
2022-12-03T14:37:08.150Z,31.88
2022-12-03T14:39:34.546Z,31.17
2022-12-03T14:42:13.171Z,29.73
2022-12-03T14:44:43.775Z,34.10
2022-12-03T14:47:10.913Z,34.60
2022-12-03T14:49:37.719Z,31.35
2022-12-03T14:52:04.392Z,31.08
2022-12-03T14:54:31.087Z,26.83
2022-12-03T14:56:57.621Z,27.52
2022-12-03T14:59:27.612Z,28.80
2022-12-03T15:01:54.590Z,29.15
2022-12-03T15:04:21.063Z,31.33
2022-12-03T15:06:47.499Z,26.17
2022-12-03T15:09:13.918Z,27.70
2022-12-03T15:11:45.957Z,28.60
2022-12-03T15:14:12.853Z,31.98
2022-12-03T15:16:39.528Z,27.75
2022-12-03T15:19:06.100Z,24.73
2022-12-03T15:21:34.800Z,23.67
2022-12-03T15:24:02.665Z,24.52
2022-12-03T15:26:29.713Z,25.60
2022-12-03T15:28:56.414Z,25.92
2022-12-03T15:31:22.834Z,28.65
2022-12-03T15:33:49.362Z,26.67
2022-12-03T15:36:15.732Z,25.75
2022-12-03T15:38:42.265Z,24.17
2022-12-03T15:41:21.248Z,26.38
2022-12-03T15:43:52.288Z,23.60
2022-12-03T15:46:20.041Z,27.73
2022-12-03T15:48:47.743Z,29.75
2022-12-03T15:51:14.655Z,25.58
2022-12-03T15:53:41.528Z,27.00
2022-12-03T15:56:08.411Z,27.50
2022-12-03T15:58:34.910Z,23.15
2022-12-03T16:01:01.454Z,24.48
2022-12-03T16:03:28.119Z,25.58
2022-12-03T16:05:54.665Z,24.88
2022-12-03T16:08:21.316Z,28.20
2022-12-03T16:10:47.891Z,33.13
2022-12-03T16:13:14.397Z,72.57
2022-12-03T16:15:40.897Z,35.55
2022-12-03T16:18:07.450Z,255.80
2022-12-03T16:20:33.906Z,275.83
2022-12-03T16:23:00.373Z,103.00
2022-12-03T16:25:26.850Z,33.25
2022-12-03T16:27:53.369Z,31.77
2022-12-03T16:30:19.843Z,26.52
2022-12-03T16:32:47.432Z,43.17
2022-12-03T16:35:13.840Z,29.05
2022-12-03T16:37:40.313Z,50.75
2022-12-03T16:40:07.393Z,32.30
2022-12-03T16:42:34.022Z,37.95
2022-12-03T16:45:03.079Z,78.75
2022-12-03T16:47:33.891Z,51.35
2022-12-03T16:50:04.733Z,52.63
2022-12-03T16:52:31.139Z,34.90
2022-12-03T16:54:57.679Z,25.10
2022-12-03T16:57:27.586Z,19.52
2022-12-03T16:59:56.872Z,27.17
2022-12-03T17:02:23.509Z,21.42
2022-12-03T17:04:50.209Z,22.33
2022-12-03T17:07:16.673Z,21.75
2022-12-03T17:09:43.339Z,24.45
2022-12-03T17:12:09.687Z,23.02
2022-12-03T17:14:36.278Z,20.45
2022-12-03T17:17:03.635Z,24.38
2022-12-03T17:19:30.111Z,20.92
2022-12-03T17:21:56.527Z,22.30
2022-12-03T17:24:23.122Z,21.88
2022-12-03T17:26:49.497Z,21.77
2022-12-03T17:29:17.160Z,20.98
2022-12-03T17:31:43.623Z,23.08
2022-12-03T17:34:10.482Z,20.90
2022-12-03T17:36:36.842Z,26.70
2022-12-03T17:39:03.610Z,27.58
2022-12-03T17:41:29.986Z,20.58
2022-12-03T17:43:56.511Z,18.42
2022-12-03T17:46:22.982Z,18.27
2022-12-03T17:48:49.676Z,21.98
2022-12-03T17:51:16.377Z,24.40
2022-12-03T17:53:42.758Z,21.38
2022-12-03T17:56:09.581Z,22.98
2022-12-03T17:58:35.970Z,23.83
2022-12-03T18:01:03.425Z,21.63
2022-12-03T18:03:30.886Z,24.65
2022-12-03T18:05:57.624Z,20.77
2022-12-03T18:08:24.055Z,21.75
2022-12-03T18:10:50.516Z,24.58
2022-12-03T18:13:16.979Z,20.05
2022-12-03T18:15:43.693Z,24.75
2022-12-03T18:18:10.431Z,22.75
2022-12-03T18:20:37.354Z,23.08
2022-12-03T18:23:03.851Z,23.08
2022-12-03T18:25:31.515Z,23.80
2022-12-03T18:27:58.091Z,20.30
2022-12-03T18:30:24.647Z,22.08
2022-12-03T18:32:51.030Z,23.02
2022-12-03T18:35:18.023Z,26.33
2022-12-03T18:37:44.850Z,20.70
2022-12-03T18:40:23.815Z,21.58
2022-12-03T18:42:50.301Z,24.95
2022-12-03T18:45:17.025Z,25.60
2022-12-03T18:47:43.626Z,92.80
2022-12-03T18:50:11.594Z,31.45
2022-12-03T18:52:38.926Z,23.40
2022-12-03T18:55:06.574Z,27.60
2022-12-03T18:57:33.226Z,69.65
2022-12-03T18:59:59.642Z,307.05
2022-12-03T19:02:54.241Z,214.60
2022-12-03T19:05:12.740Z,138.50
2022-12-03T19:07:39.451Z,79.03
2022-12-03T19:10:06.644Z,54.42
2022-12-03T19:12:33.588Z,139.50
2022-12-03T19:15:00.420Z,30.92
2022-12-03T19:17:27.509Z,125.47
2022-12-03T19:19:54.834Z,34.63
2022-12-03T19:22:21.879Z,30.92
2022-12-03T19:24:48.428Z,32.10
2022-12-03T19:27:15.178Z,50.95
2022-12-03T19:29:41.800Z,56.67
2022-12-03T19:32:08.840Z,86.13
2022-12-03T19:34:35.289Z,83.05
2022-12-03T19:37:01.770Z,53.28
2022-12-03T19:39:28.146Z,328.00
2022-12-03T19:41:54.578Z,204.00
2022-12-03T19:44:21.000Z,48.03
2022-12-03T19:46:49.591Z,79.47
2022-12-03T19:49:18.378Z,277.58
2022-12-03T19:51:44.820Z,83.60
2022-12-03T19:54:12.035Z,67.50
2022-12-03T19:56:38.632Z,84.70
2022-12-03T19:59:05.312Z,70.05
2022-12-03T20:01:34.393Z,52.63
2022-12-03T20:04:02.509Z,36.80
2022-12-03T20:06:31.853Z,60.30
2022-12-03T20:09:00.540Z,61.17
2022-12-03T20:11:29.442Z,37.78
2022-12-03T20:13:58.161Z,35.42
2022-12-03T20:16:27.459Z,34.45
2022-12-03T20:18:59.107Z,33.60
2022-12-03T20:21:26.906Z,29.52
2022-12-03T20:23:53.415Z,32.35
2022-12-03T20:26:22.530Z,31.02
2022-12-03T20:28:49.860Z,28.15
2022-12-03T20:31:18.829Z,27.63
2022-12-03T20:33:48.343Z,35.22
2022-12-03T20:36:16.640Z,33.22
2022-12-03T20:38:43.601Z,34.25
2022-12-03T20:41:13.952Z,32.97
2022-12-03T20:43:40.500Z,32.28
2022-12-03T20:46:08.058Z,36.08
2022-12-03T20:48:35.595Z,32.42
2022-12-03T20:51:07.579Z,37.67
2022-12-03T20:53:35.242Z,29.20
2022-12-03T20:56:02.587Z,27.75
2022-12-03T20:58:30.773Z,31.42
2022-12-03T21:01:15.398Z,28.02
2022-12-03T21:03:42.527Z,32.15
2022-12-03T21:06:10.193Z,28.73
2022-12-03T21:08:41.491Z,30.40
2022-12-03T21:11:11.923Z,31.17
2022-12-03T21:13:41.216Z,33.97
2022-12-03T21:16:09.528Z,32.45
2022-12-03T21:18:36.259Z,33.15
2022-12-03T21:21:04.423Z,35.58
2022-12-03T21:23:32.468Z,31.00
2022-12-03T21:26:16.862Z,29.38
2022-12-03T21:28:45.580Z,31.63
2022-12-03T21:31:14.827Z,31.00
2022-12-03T21:33:41.319Z,36.90
2022-12-03T21:36:08.648Z,37.15
2022-12-03T21:38:36.441Z,36.22
2022-12-03T21:41:04.970Z,34.38
2022-12-03T21:43:32.487Z,34.38
2022-12-03T21:45:59.408Z,31.85
2022-12-03T21:48:25.902Z,33.25
2022-12-03T21:51:10.140Z,34.88
2022-12-03T21:53:43.338Z,32.35
2022-12-03T21:56:16.199Z,33.38
2022-12-03T21:58:43.893Z,34.42
2022-12-03T22:01:16.365Z,36.65
2022-12-03T22:03:43.472Z,32.65
2022-12-03T22:06:10.731Z,34.25
2022-12-03T22:08:37.695Z,34.42
2022-12-03T22:11:06.196Z,39.75
2022-12-03T22:13:32.832Z,33.85
2022-12-03T22:15:59.280Z,32.53
2022-12-03T22:18:25.735Z,36.90
2022-12-03T22:20:52.149Z,43.08
2022-12-03T22:23:18.633Z,41.25
2022-12-03T22:25:44.999Z,35.00
2022-12-03T22:28:11.598Z,34.55
2022-12-03T22:30:39.856Z,34.08
2022-12-03T22:33:06.303Z,30.60
2022-12-03T22:35:32.809Z,31.48
2022-12-03T22:37:59.261Z,33.72
2022-12-03T22:40:25.696Z,35.33
2022-12-03T22:42:52.079Z,32.95
2022-12-03T22:45:18.555Z,32.97
2022-12-03T22:47:45.064Z,33.55
2022-12-03T22:50:12.560Z,33.67
2022-12-03T22:52:38.948Z,35.28
2022-12-03T22:55:05.659Z,35.55
2022-12-03T22:57:32.390Z,33.53
2022-12-03T22:59:58.877Z,29.73
2022-12-03T23:02:25.506Z,28.17
2022-12-03T23:04:55.257Z,37.42
2022-12-03T23:07:21.779Z,31.30
2022-12-03T23:09:48.563Z,31.67
2022-12-03T23:12:15.322Z,32.40
2022-12-03T23:14:41.851Z,35.00
2022-12-03T23:17:09.005Z,32.65
2022-12-03T23:19:35.758Z,32.63
2022-12-03T23:22:02.491Z,26.00
2022-12-03T23:24:29.189Z,24.27
2022-12-03T23:26:56.481Z,27.63
2022-12-03T23:29:22.949Z,31.35
2022-12-03T23:31:49.579Z,29.42
2022-12-03T23:34:16.096Z,30.15
2022-12-03T23:36:42.695Z,30.48
2022-12-03T23:39:09.206Z,34.90
2022-12-03T23:41:36.085Z,33.05
2022-12-03T23:44:02.439Z,33.20
2022-12-03T23:46:29.137Z,29.08
2022-12-03T23:48:58.415Z,33.03
2022-12-03T23:51:25.601Z,34.03
2022-12-03T23:53:53.091Z,31.15
2022-12-03T23:56:22.572Z,29.52
2022-12-03T23:58:51.226Z,33.22
